EPPO/POZ METAR and TAF weather

Enter ICAO airport designator
Station Type Date Time Source
EPPO METAR 2018/10/21 06:30 UTC NOAA

EPPO 210630Z VRB02KT 2400 BR BKN002 OVC003 06/06 Q1028 R10/290095


Station Type Date Time Source
EPPO Decoded METAR 2018/10/21 06:30 UTC NOAA

Poznan, Poland (EPPO) 52-25N 016-50E 92M
Oct 21, 2018 - 02:30 AM EDT / 2018.10.21 0630 UTC
Wind: Variable at 2 MPH (2 KT):0
Visibility: 1 mile(s):0
Sky conditions: overcast
Weather: mist
Temperature: 42 F (6 C)
Dew Point: 42 F (6 C)
Relative Humidity: 100%
Pressure (altimeter): 30.36 in. Hg (1028 hPa)
ob: EPPO 210630Z VRB02KT 2400 BR BKN002 OVC003 06/06 Q1028 R10/290095
cycle: 6

Station Type Date Time Source
EPPO TAF 2018/10/21 06:33 UTC NOAA

TAF EPPO 210530Z 2106/2206 VRB02KT 3000 BR OVC005
TEMPO 2106/2110 1200 BR OVC002 PROB40
TEMPO 2106/2109 0100 FG OVC001
BECMG 2110/2113 CAVOK


Example: see airport list